sensor_id;sensor_type;location;lat;lon;timestamp;temperature;humidity
7427;DHT22;3755;59.316;18.092;2022-09-25T00:01:17;11.30;99.90
7427;DHT22;3755;59.316;18.092;2022-09-25T00:03:46;11.30;99.90
7427;DHT22;3755;59.316;18.092;2022-09-25T00:06:16;11.20;99.90
7427;DHT22;3755;59.316;18.092;2022-09-25T00:08:44;11.20;99.90
7427;DHT22;3755;59.316;18.092;2022-09-25T00:11:14;11.20;99.90
7427;DHT22;3755;59.316;18.092;2022-09-25T00:13:42;11.20;99.90
7427;DHT22;3755;59.316;18.092;2022-09-25T00:16:12;11.10;99.90
7427;DHT22;3755;59.316;18.092;2022-09-25T00:18:40;11.10;99.90
7427;DHT22;3755;59.316;18.092;2022-09-25T00:21:26;11.00;99.90
7427;DHT22;3755;59.316;18.092;2022-09-25T00:23:56;11.00;99.90
7427;DHT22;3755;59.316;18.092;2022-09-25T00:26:26;11.00;99.90
7427;DHT22;3755;59.316;18.092;2022-09-25T00:28:54;11.00;99.90
7427;DHT22;3755;59.316;18.092;2022-09-25T00:31:24;10.90;99.90
7427;DHT22;3755;59.316;18.092;2022-09-25T00:33:51;10.90;99.90
7427;DHT22;3755;59.316;18.092;2022-09-25T00:36:19;10.90;99.90
7427;DHT22;3755;59.316;18.092;2022-09-25T00:38:48;10.80;99.90
7427;DHT22;3755;59.316;18.092;2022-09-25T00:41:16;10.80;99.90
7427;DHT22;3755;59.316;18.092;2022-09-25T00:43:46;10.80;99.90
7427;DHT22;3755;59.316;18.092;2022-09-25T00:46:18;10.70;99.90
7427;DHT22;3755;59.316;18.092;2022-09-25T00:48:49;10.70;99.90
7427;DHT22;3755;59.316;18.092;2022-09-25T00:51:20;10.70;99.90
7427;DHT22;3755;59.316;18.092;2022-09-25T00:53:51;10.70;99.90
7427;DHT22;3755;59.316;18.092;2022-09-25T00:56:18;10.60;99.90
7427;DHT22;3755;59.316;18.092;2022-09-25T00:58:46;10.60;99.90
7427;DHT22;3755;59.316;18.092;2022-09-25T01:01:15;10.50;99.90
7427;DHT22;3755;59.316;18.092;2022-09-25T01:03:42;10.50;99.90
7427;DHT22;3755;59.316;18.092;2022-09-25T01:06:12;10.50;99.90
7427;DHT22;3755;59.316;18.092;2022-09-25T01:08:41;10.50;99.90
7427;DHT22;3755;59.316;18.092;2022-09-25T01:11:10;10.60;99.90
7427;DHT22;3755;59.316;18.092;2022-09-25T01:13:37;10.50;99.90
7427;DHT22;3755;59.316;18.092;2022-09-25T01:16:10;10.50;99.90
7427;DHT22;3755;59.316;18.092;2022-09-25T01:18:50;10.50;99.90
7427;DHT22;3755;59.316;18.092;2022-09-25T01:21:25;10.50;99.90
7427;DHT22;3755;59.316;18.092;2022-09-25T01:27:20;10.40;99.90
7427;DHT22;3755;59.316;18.092;2022-09-25T01:29:57;10.40;99.90
7427;DHT22;3755;59.316;18.092;2022-09-25T01:32:33;10.40;99.90
7427;DHT22;3755;59.316;18.092;2022-09-25T01:35:06;10.40;99.90
7427;DHT22;3755;59.316;18.092;2022-09-25T01:37:41;10.40;99.90
7427;DHT22;3755;59.316;18.092;2022-09-25T01:40:13;10.40;99.90
7427;DHT22;3755;59.316;18.092;2022-09-25T01:42:47;10.40;99.90
7427;DHT22;3755;59.316;18.092;2022-09-25T01:45:21;10.40;99.90
7427;DHT22;3755;59.316;18.092;2022-09-25T01:47:50;10.50;99.90
7427;DHT22;3755;59.316;18.092;2022-09-25T01:50:25;10.40;99.90
7427;DHT22;3755;59.316;18.092;2022-09-25T01:52:56;10.40;99.90
7427;DHT22;3755;59.316;18.092;2022-09-25T01:55:29;10.40;99.90
7427;DHT22;3755;59.316;18.092;2022-09-25T01:58:06;10.50;99.90
7427;DHT22;3755;59.316;18.092;2022-09-25T02:00:40;10.50;99.90
7427;DHT22;3755;59.316;18.092;2022-09-25T02:03:10;10.50;99.90
7427;DHT22;3755;59.316;18.092;2022-09-25T02:05:42;10.50;99.90
7427;DHT22;3755;59.316;18.092;2022-09-25T02:08:14;10.50;99.90
7427;DHT22;3755;59.316;18.092;2022-09-25T02:10:46;10.60;99.90
7427;DHT22;3755;59.316;18.092;2022-09-25T02:13:17;10.60;99.90
7427;DHT22;3755;59.316;18.092;2022-09-25T02:15:49;10.50;99.90
7427;DHT22;3755;59.316;18.092;2022-09-25T02:18:18;10.50;99.90
7427;DHT22;3755;59.316;18.092;2022-09-25T02:21:11;10.60;99.90
7427;DHT22;3755;59.316;18.092;2022-09-25T02:23:46;10.60;99.90
7427;DHT22;3755;59.316;18.092;2022-09-25T02:26:19;10.70;99.90
7427;DHT22;3755;59.316;18.092;2022-09-25T02:28:49;10.70;99.90
7427;DHT22;3755;59.316;18.092;2022-09-25T02:31:21;10.70;99.90
7427;DHT22;3755;59.316;18.092;2022-09-25T02:33:51;10.80;99.90
7427;DHT22;3755;59.316;18.092;2022-09-25T02:36:20;10.80;99.90
7427;DHT22;3755;59.316;18.092;2022-09-25T02:38:49;10.80;99.90
7427;DHT22;3755;59.316;18.092;2022-09-25T02:41:23;10.80;99.90
7427;DHT22;3755;59.316;18.092;2022-09-25T02:43:59;10.70;99.90
7427;DHT22;3755;59.316;18.092;2022-09-25T02:46:35;10.70;99.90
7427;DHT22;3755;59.316;18.092;2022-09-25T02:49:14;10.70;99.90
7427;DHT22;3755;59.316;18.092;2022-09-25T02:51:48;10.70;99.90
7427;DHT22;3755;59.316;18.092;2022-09-25T02:54:22;10.80;99.90
7427;DHT22;3755;59.316;18.092;2022-09-25T02:56:55;10.70;99.90
7427;DHT22;3755;59.316;18.092;2022-09-25T02:59:28;10.70;99.90
7427;DHT22;3755;59.316;18.092;2022-09-25T03:02:00;10.60;99.90
7427;DHT22;3755;59.316;18.092;2022-09-25T03:04:29;10.50;99.90
7427;DHT22;3755;59.316;18.092;2022-09-25T03:07:00;10.40;99.90
7427;DHT22;3755;59.316;18.092;2022-09-25T03:09:29;10.40;99.90
7427;DHT22;3755;59.316;18.092;2022-09-25T03:11:57;10.30;99.90
7427;DHT22;3755;59.316;18.092;2022-09-25T03:14:26;10.30;99.90
7427;DHT22;3755;59.316;18.092;2022-09-25T03:16:55;10.20;99.90
7427;DHT22;3755;59.316;18.092;2022-09-25T03:19:29;10.20;99.90
7427;DHT22;3755;59.316;18.092;2022-09-25T03:21:56;10.20;99.90
7427;DHT22;3755;59.316;18.092;2022-09-25T03:24:23;10.20;99.90
7427;DHT22;3755;59.316;18.092;2022-09-25T03:26:50;10.10;99.90
7427;DHT22;3755;59.316;18.092;2022-09-25T03:29:19;10.10;99.90
7427;DHT22;3755;59.316;18.092;2022-09-25T03:31:46;10.20;99.90
7427;DHT22;3755;59.316;18.092;2022-09-25T03:34:15;10.20;99.90
7427;DHT22;3755;59.316;18.092;2022-09-25T03:36:44;10.10;99.90
7427;DHT22;3755;59.316;18.092;2022-09-25T03:39:13;10.20;99.90
7427;DHT22;3755;59.316;18.092;2022-09-25T03:41:42;10.20;99.90
7427;DHT22;3755;59.316;18.092;2022-09-25T03:44:10;10.20;99.90
7427;DHT22;3755;59.316;18.092;2022-09-25T03:46:37;10.20;99.90
7427;DHT22;3755;59.316;18.092;2022-09-25T03:49:04;10.20;99.90
7427;DHT22;3755;59.316;18.092;2022-09-25T03:51:32;10.30;99.90
7427;DHT22;3755;59.316;18.092;2022-09-25T03:54:01;10.30;99.90
7427;DHT22;3755;59.316;18.092;2022-09-25T03:56:28;10.30;99.90
7427;DHT22;3755;59.316;18.092;2022-09-25T03:58:57;10.20;99.90
7427;DHT22;3755;59.316;18.092;2022-09-25T04:01:25;10.30;99.90
7427;DHT22;3755;59.316;18.092;2022-09-25T04:03:53;10.30;99.90
7427;DHT22;3755;59.316;18.092;2022-09-25T04:06:23;10.20;99.90
7427;DHT22;3755;59.316;18.092;2022-09-25T04:08:51;10.20;99.90
7427;DHT22;3755;59.316;18.092;2022-09-25T04:11:22;10.20;99.90
7427;DHT22;3755;59.316;18.092;2022-09-25T04:13:49;10.20;99.90
7427;DHT22;3755;59.316;18.092;2022-09-25T04:16:17;10.20;99.90
7427;DHT22;3755;59.316;18.092;2022-09-25T04:18:45;10.20;99.90
7427;DHT22;3755;59.316;18.092;2022-09-25T04:21:13;10.20;99.90
7427;DHT22;3755;59.316;18.092;2022-09-25T04:23:41;10.10;99.90
7427;DHT22;3755;59.316;18.092;2022-09-25T04:26:30;10.10;99.90
7427;DHT22;3755;59.316;18.092;2022-09-25T04:28:58;10.10;99.90
7427;DHT22;3755;59.316;18.092;2022-09-25T04:31:27;10.10;99.90
7427;DHT22;3755;59.316;18.092;2022-09-25T04:33:54;10.10;99.90
7427;DHT22;3755;59.316;18.092;2022-09-25T04:36:20;10.20;99.90
7427;DHT22;3755;59.316;18.092;2022-09-25T04:38:47;10.20;99.90
7427;DHT22;3755;59.316;18.092;2022-09-25T04:41:15;10.30;99.90
7427;DHT22;3755;59.316;18.092;2022-09-25T04:43:45;10.30;99.90
7427;DHT22;3755;59.316;18.092;2022-09-25T04:46:13;10.30;99.90
7427;DHT22;3755;59.316;18.092;2022-09-25T04:48:43;10.30;99.90
7427;DHT22;3755;59.316;18.092;2022-09-25T04:51:11;10.20;99.90
7427;DHT22;3755;59.316;18.092;2022-09-25T04:53:38;10.20;99.90
7427;DHT22;3755;59.316;18.092;2022-09-25T04:56:06;10.20;99.90
7427;DHT22;3755;59.316;18.092;2022-09-25T04:58:35;10.30;99.90
7427;DHT22;3755;59.316;18.092;2022-09-25T05:01:06;10.40;99.90
7427;DHT22;3755;59.316;18.092;2022-09-25T05:03:34;10.40;99.90
7427;DHT22;3755;59.316;18.092;2022-09-25T05:06:01;10.40;99.90
7427;DHT22;3755;59.316;18.092;2022-09-25T05:08:28;10.50;99.90
7427;DHT22;3755;59.316;18.092;2022-09-25T05:10:55;10.50;99.90
7427;DHT22;3755;59.316;18.092;2022-09-25T05:13:22;10.50;99.90
7427;DHT22;3755;59.316;18.092;2022-09-25T05:15:49;10.50;99.90
7427;DHT22;3755;59.316;18.092;2022-09-25T05:18:19;10.50;99.90
7427;DHT22;3755;59.316;18.092;2022-09-25T05:20:47;10.50;99.90
7427;DHT22;3755;59.316;18.092;2022-09-25T05:23:15;10.60;99.90
7427;DHT22;3755;59.316;18.092;2022-09-25T05:25:42;10.60;99.90
7427;DHT22;3755;59.316;18.092;2022-09-25T05:28:09;10.70;99.90
7427;DHT22;3755;59.316;18.092;2022-09-25T05:30:37;10.60;99.90
7427;DHT22;3755;59.316;18.092;2022-09-25T05:33:04;10.60;99.90
7427;DHT22;3755;59.316;18.092;2022-09-25T05:35:33;10.50;99.90
7427;DHT22;3755;59.316;18.092;2022-09-25T05:38:01;10.50;99.90
7427;DHT22;3755;59.316;18.092;2022-09-25T05:40:28;10.50;99.90
7427;DHT22;3755;59.316;18.092;2022-09-25T05:42:55;10.50;99.90
7427;DHT22;3755;59.316;18.092;2022-09-25T05:45:23;10.50;99.90
7427;DHT22;3755;59.316;18.092;2022-09-25T05:47:59;10.60;99.90
7427;DHT22;3755;59.316;18.092;2022-09-25T05:50:27;10.70;99.90
7427;DHT22;3755;59.316;18.092;2022-09-25T05:52:56;10.70;99.90
7427;DHT22;3755;59.316;18.092;2022-09-25T05:55:23;10.70;99.90
7427;DHT22;3755;59.316;18.092;2022-09-25T05:57:52;10.60;99.90
7427;DHT22;3755;59.316;18.092;2022-09-25T06:00:19;10.60;99.90
7427;DHT22;3755;59.316;18.092;2022-09-25T06:02:50;10.60;99.90
7427;DHT22;3755;59.316;18.092;2022-09-25T06:05:17;10.60;99.90
7427;DHT22;3755;59.316;18.092;2022-09-25T06:07:49;10.60;99.90
7427;DHT22;3755;59.316;18.092;2022-09-25T06:10:18;10.70;99.90
7427;DHT22;3755;59.316;18.092;2022-09-25T06:12:46;10.70;99.90
7427;DHT22;3755;59.316;18.092;2022-09-25T06:15:13;10.70;99.90
7427;DHT22;3755;59.316;18.092;2022-09-25T06:17:40;10.80;99.90
7427;DHT22;3755;59.316;18.092;2022-09-25T06:20:08;10.80;99.90
7427;DHT22;3755;59.316;18.092;2022-09-25T06:22:35;10.90;99.90
7427;DHT22;3755;59.316;18.092;2022-09-25T06:25:03;10.90;99.90
7427;DHT22;3755;59.316;18.092;2022-09-25T06:27:32;10.90;99.90
7427;DHT22;3755;59.316;18.092;2022-09-25T06:29:59;11.00;99.90
7427;DHT22;3755;59.316;18.092;2022-09-25T06:32:29;11.10;99.90
7427;DHT22;3755;59.316;18.092;2022-09-25T06:34:58;11.10;99.90
7427;DHT22;3755;59.316;18.092;2022-09-25T06:37:25;11.10;99.90
7427;DHT22;3755;59.316;18.092;2022-09-25T06:39:52;11.20;99.90
7427;DHT22;3755;59.316;18.092;2022-09-25T06:42:20;11.30;99.90
7427;DHT22;3755;59.316;18.092;2022-09-25T06:44:48;11.30;99.90
7427;DHT22;3755;59.316;18.092;2022-09-25T06:47:15;11.40;99.90
7427;DHT22;3755;59.316;18.092;2022-09-25T06:49:42;11.40;99.90
7427;DHT22;3755;59.316;18.092;2022-09-25T06:52:10;11.40;99.90
7427;DHT22;3755;59.316;18.092;2022-09-25T06:57:38;11.20;99.90
7427;DHT22;3755;59.316;18.092;2022-09-25T07:00:08;11.20;99.90
7427;DHT22;3755;59.316;18.092;2022-09-25T07:02:35;11.10;99.90
7427;DHT22;3755;59.316;18.092;2022-09-25T07:05:20;11.30;99.90
7427;DHT22;3755;59.316;18.092;2022-09-25T07:07:47;11.30;99.90
7427;DHT22;3755;59.316;18.092;2022-09-25T07:10:14;11.40;99.90
7427;DHT22;3755;59.316;18.092;2022-09-25T07:12:52;11.50;99.90
7427;DHT22;3755;59.316;18.092;2022-09-25T07:15:21;11.50;99.90
7427;DHT22;3755;59.316;18.092;2022-09-25T07:17:48;11.60;99.90
7427;DHT22;3755;59.316;18.092;2022-09-25T07:20:16;11.70;99.90
7427;DHT22;3755;59.316;18.092;2022-09-25T07:22:44;11.80;99.90
7427;DHT22;3755;59.316;18.092;2022-09-25T07:25:11;11.80;99.90
7427;DHT22;3755;59.316;18.092;2022-09-25T07:27:39;11.80;99.90
7427;DHT22;3755;59.316;18.092;2022-09-25T07:30:08;12.00;99.90
7427;DHT22;3755;59.316;18.092;2022-09-25T07:32:36;12.20;99.90
7427;DHT22;3755;59.316;18.092;2022-09-25T07:35:04;12.40;99.90
7427;DHT22;3755;59.316;18.092;2022-09-25T07:37:31;12.50;99.90
7427;DHT22;3755;59.316;18.092;2022-09-25T07:39:58;12.60;99.90
7427;DHT22;3755;59.316;18.092;2022-09-25T07:42:25;12.70;99.90
7427;DHT22;3755;59.316;18.092;2022-09-25T07:44:52;12.80;99.90
7427;DHT22;3755;59.316;18.092;2022-09-25T07:47:19;12.80;99.90
7427;DHT22;3755;59.316;18.092;2022-09-25T07:49:48;12.90;99.90
7427;DHT22;3755;59.316;18.092;2022-09-25T07:52:15;12.90;99.90
7427;DHT22;3755;59.316;18.092;2022-09-25T07:54:42;12.90;99.90
7427;DHT22;3755;59.316;18.092;2022-09-25T07:57:09;12.80;99.90
7427;DHT22;3755;59.316;18.092;2022-09-25T07:59:37;12.90;99.90
7427;DHT22;3755;59.316;18.092;2022-09-25T08:02:05;13.00;99.90
7427;DHT22;3755;59.316;18.092;2022-09-25T08:04:32;13.00;99.90
7427;DHT22;3755;59.316;18.092;2022-09-25T08:07:00;13.00;99.90
7427;DHT22;3755;59.316;18.092;2022-09-25T08:09:27;13.00;99.90
7427;DHT22;3755;59.316;18.092;2022-09-25T08:11:54;13.20;99.90
7427;DHT22;3755;59.316;18.092;2022-09-25T08:14:21;13.20;99.90
7427;DHT22;3755;59.316;18.092;2022-09-25T08:16:50;13.30;99.90
7427;DHT22;3755;59.316;18.092;2022-09-25T08:19:20;13.30;99.90
7427;DHT22;3755;59.316;18.092;2022-09-25T08:21:48;13.20;99.90
7427;DHT22;3755;59.316;18.092;2022-09-25T08:24:17;13.20;99.90
7427;DHT22;3755;59.316;18.092;2022-09-25T08:26:45;13.40;99.90
7427;DHT22;3755;59.316;18.092;2022-09-25T08:29:12;13.20;99.90
7427;DHT22;3755;59.316;18.092;2022-09-25T08:31:39;13.50;99.90
7427;DHT22;3755;59.316;18.092;2022-09-25T08:34:06;13.80;99.90
7427;DHT22;3755;59.316;18.092;2022-09-25T08:36:35;13.90;99.90
7427;DHT22;3755;59.316;18.092;2022-09-25T08:39:02;14.10;99.90
7427;DHT22;3755;59.316;18.092;2022-09-25T08:41:35;14.20;99.90
7427;DHT22;3755;59.316;18.092;2022-09-25T08:44:09;14.30;99.90
7427;DHT22;3755;59.316;18.092;2022-09-25T08:46:40;14.30;99.90
7427;DHT22;3755;59.316;18.092;2022-09-25T08:49:29;14.50;99.90
7427;DHT22;3755;59.316;18.092;2022-09-25T08:52:01;14.50;99.90
7427;DHT22;3755;59.316;18.092;2022-09-25T08:54:30;14.50;99.90
7427;DHT22;3755;59.316;18.092;2022-09-25T08:57:06;14.60;99.90
7427;DHT22;3755;59.316;18.092;2022-09-25T08:59:40;14.40;99.90
7427;DHT22;3755;59.316;18.092;2022-09-25T09:02:12;14.50;99.90
7427;DHT22;3755;59.316;18.092;2022-09-25T09:04:44;14.60;99.90
7427;DHT22;3755;59.316;18.092;2022-09-25T09:07:16;14.50;99.90
7427;DHT22;3755;59.316;18.092;2022-09-25T09:09:48;14.50;99.90
7427;DHT22;3755;59.316;18.092;2022-09-25T09:12:24;14.80;99.90
7427;DHT22;3755;59.316;18.092;2022-09-25T09:15:04;14.80;99.90
7427;DHT22;3755;59.316;18.092;2022-09-25T09:17:39;14.50;99.90
7427;DHT22;3755;59.316;18.092;2022-09-25T09:20:14;14.40;99.90
7427;DHT22;3755;59.316;18.092;2022-09-25T09:22:47;14.40;99.90
7427;DHT22;3755;59.316;18.092;2022-09-25T09:25:25;14.60;99.90
7427;DHT22;3755;59.316;18.092;2022-09-25T09:28:11;14.60;99.90
7427;DHT22;3755;59.316;18.092;2022-09-25T09:30:47;14.60;99.90
7427;DHT22;3755;59.316;18.092;2022-09-25T09:33:26;14.70;99.90
7427;DHT22;3755;59.316;18.092;2022-09-25T09:36:04;14.70;99.90
7427;DHT22;3755;59.316;18.092;2022-09-25T09:38:42;14.80;99.90
7427;DHT22;3755;59.316;18.092;2022-09-25T09:41:22;14.90;99.90
7427;DHT22;3755;59.316;18.092;2022-09-25T09:44:06;14.90;99.90
7427;DHT22;3755;59.316;18.092;2022-09-25T09:46:44;15.10;99.90
7427;DHT22;3755;59.316;18.092;2022-09-25T09:49:19;15.30;99.90
7427;DHT22;3755;59.316;18.092;2022-09-25T09:51:51;15.30;99.90
7427;DHT22;3755;59.316;18.092;2022-09-25T09:54:24;15.30;99.90
7427;DHT22;3755;59.316;18.092;2022-09-25T09:56:53;15.20;99.90
7427;DHT22;3755;59.316;18.092;2022-09-25T09:59:26;15.20;99.90
7427;DHT22;3755;59.316;18.092;2022-09-25T10:01:59;15.20;99.90
7427;DHT22;3755;59.316;18.092;2022-09-25T10:04:32;15.40;99.90
7427;DHT22;3755;59.316;18.092;2022-09-25T10:07:03;15.40;99.90
7427;DHT22;3755;59.316;18.092;2022-09-25T10:09:32;15.40;99.90
7427;DHT22;3755;59.316;18.092;2022-09-25T10:12:04;15.40;99.90
7427;DHT22;3755;59.316;18.092;2022-09-25T10:14:37;15.60;99.90
7427;DHT22;3755;59.316;18.092;2022-09-25T10:17:12;15.70;99.90
7427;DHT22;3755;59.316;18.092;2022-09-25T10:20:00;15.70;99.90
7427;DHT22;3755;59.316;18.092;2022-09-25T10:22:37;15.70;99.90
7427;DHT22;3755;59.316;18.092;2022-09-25T10:25:06;15.70;99.90
7427;DHT22;3755;59.316;18.092;2022-09-25T10:27:34;15.70;99.90
7427;DHT22;3755;59.316;18.092;2022-09-25T10:30:15;15.80;99.90
7427;DHT22;3755;59.316;18.092;2022-09-25T10:32:55;16.00;99.90
7427;DHT22;3755;59.316;18.092;2022-09-25T10:35:26;16.20;99.90
7427;DHT22;3755;59.316;18.092;2022-09-25T10:37:56;16.40;99.90
7427;DHT22;3755;59.316;18.092;2022-09-25T10:40:28;16.40;99.90
7427;DHT22;3755;59.316;18.092;2022-09-25T10:43:15;16.30;99.90
7427;DHT22;3755;59.316;18.092;2022-09-25T10:45:44;16.50;99.90
7427;DHT22;3755;59.316;18.092;2022-09-25T10:48:29;16.60;99.90
7427;DHT22;3755;59.316;18.092;2022-09-25T10:51:15;16.90;99.90
7427;DHT22;3755;59.316;18.092;2022-09-25T10:53:45;16.60;99.90
7427;DHT22;3755;59.316;18.092;2022-09-25T10:56:16;16.20;99.90
7427;DHT22;3755;59.316;18.092;2022-09-25T10:58:46;16.30;99.90
7427;DHT22;3755;59.316;18.092;2022-09-25T11:01:17;16.50;99.90
7427;DHT22;3755;59.316;18.092;2022-09-25T11:03:50;16.70;99.90
7427;DHT22;3755;59.316;18.092;2022-09-25T11:06:26;16.80;99.90
7427;DHT22;3755;59.316;18.092;2022-09-25T11:09:04;16.50;99.90
7427;DHT22;3755;59.316;18.092;2022-09-25T11:11:34;16.40;99.90
7427;DHT22;3755;59.316;18.092;2022-09-25T11:14:06;16.40;99.90
7427;DHT22;3755;59.316;18.092;2022-09-25T11:16:49;16.10;99.90
7427;DHT22;3755;59.316;18.092;2022-09-25T11:19:26;16.20;99.90
7427;DHT22;3755;59.316;18.092;2022-09-25T11:21:59;16.00;99.90
7427;DHT22;3755;59.316;18.092;2022-09-25T11:24:38;15.80;99.90
7427;DHT22;3755;59.316;18.092;2022-09-25T11:27:11;15.80;99.90
7427;DHT22;3755;59.316;18.092;2022-09-25T11:29:49;15.80;99.90
7427;DHT22;3755;59.316;18.092;2022-09-25T11:32:25;16.00;99.90
7427;DHT22;3755;59.316;18.092;2022-09-25T11:35:11;16.10;99.90
7427;DHT22;3755;59.316;18.092;2022-09-25T11:37:48;16.20;99.90
7427;DHT22;3755;59.316;18.092;2022-09-25T11:40:28;16.30;99.90
7427;DHT22;3755;59.316;18.092;2022-09-25T11:43:16;16.50;99.90
7427;DHT22;3755;59.316;18.092;2022-09-25T11:45:49;16.70;99.90
7427;DHT22;3755;59.316;18.092;2022-09-25T11:48:24;16.80;99.90
7427;DHT22;3755;59.316;18.092;2022-09-25T11:50:58;16.90;99.90
7427;DHT22;3755;59.316;18.092;2022-09-25T11:53:35;17.00;99.90
7427;DHT22;3755;59.316;18.092;2022-09-25T11:56:22;17.20;99.90
7427;DHT22;3755;59.316;18.092;2022-09-25T11:59:16;17.00;99.90
7427;DHT22;3755;59.316;18.092;2022-09-25T12:01:49;16.80;99.90
7427;DHT22;3755;59.316;18.092;2022-09-25T12:04:45;16.80;99.90
7427;DHT22;3755;59.316;18.092;2022-09-25T12:07:28;16.40;99.90
7427;DHT22;3755;59.316;18.092;2022-09-25T12:10:10;16.20;99.90
7427;DHT22;3755;59.316;18.092;2022-09-25T12:12:44;16.10;99.90
7427;DHT22;3755;59.316;18.092;2022-09-25T12:15:19;16.00;99.90
7427;DHT22;3755;59.316;18.092;2022-09-25T12:17:57;15.90;99.90
7427;DHT22;3755;59.316;18.092;2022-09-25T12:20:36;15.90;99.90
7427;DHT22;3755;59.316;18.092;2022-09-25T12:23:14;15.80;99.90
7427;DHT22;3755;59.316;18.092;2022-09-25T12:25:51;16.10;99.90
7427;DHT22;3755;59.316;18.092;2022-09-25T12:28:27;16.40;99.90
7427;DHT22;3755;59.316;18.092;2022-09-25T12:31:04;16.50;99.90
7427;DHT22;3755;59.316;18.092;2022-09-25T12:33:36;16.60;99.90
7427;DHT22;3755;59.316;18.092;2022-09-25T12:36:15;16.80;99.90
7427;DHT22;3755;59.316;18.092;2022-09-25T12:38:48;16.70;99.90
7427;DHT22;3755;59.316;18.092;2022-09-25T12:41:25;16.70;99.90
7427;DHT22;3755;59.316;18.092;2022-09-25T12:43:59;16.80;99.90
7427;DHT22;3755;59.316;18.092;2022-09-25T12:46:35;16.80;99.90
7427;DHT22;3755;59.316;18.092;2022-09-25T12:49:10;16.80;99.90
7427;DHT22;3755;59.316;18.092;2022-09-25T12:51:42;16.80;99.90
7427;DHT22;3755;59.316;18.092;2022-09-25T12:54:19;16.60;99.90
7427;DHT22;3755;59.316;18.092;2022-09-25T12:56:52;16.30;99.90
7427;DHT22;3755;59.316;18.092;2022-09-25T12:59:26;16.30;99.90
7427;DHT22;3755;59.316;18.092;2022-09-25T13:02:01;16.40;99.90
7427;DHT22;3755;59.316;18.092;2022-09-25T13:04:47;16.40;99.90
7427;DHT22;3755;59.316;18.092;2022-09-25T13:07:21;16.60;99.90
7427;DHT22;3755;59.316;18.092;2022-09-25T13:10:22;16.60;99.90
7427;DHT22;3755;59.316;18.092;2022-09-25T13:12:53;16.40;99.90
7427;DHT22;3755;59.316;18.092;2022-09-25T13:15:27;16.40;99.90
7427;DHT22;3755;59.316;18.092;2022-09-25T13:17:59;16.20;99.90
7427;DHT22;3755;59.316;18.092;2022-09-25T13:20:43;16.20;99.90
7427;DHT22;3755;59.316;18.092;2022-09-25T13:23:22;16.20;99.90
7427;DHT22;3755;59.316;18.092;2022-09-25T13:25:53;16.20;99.90
7427;DHT22;3755;59.316;18.092;2022-09-25T13:28:29;16.20;99.90
7427;DHT22;3755;59.316;18.092;2022-09-25T13:31:01;16.10;99.90
7427;DHT22;3755;59.316;18.092;2022-09-25T13:33:35;16.20;99.90
7427;DHT22;3755;59.316;18.092;2022-09-25T13:36:09;16.20;99.90
7427;DHT22;3755;59.316;18.092;2022-09-25T13:38:44;16.30;99.90
7427;DHT22;3755;59.316;18.092;2022-09-25T13:44:56;16.30;99.90
7427;DHT22;3755;59.316;18.092;2022-09-25T13:47:43;16.20;99.90
7427;DHT22;3755;59.316;18.092;2022-09-25T13:50:28;16.30;99.90
7427;DHT22;3755;59.316;18.092;2022-09-25T13:59:03;16.00;99.90
7427;DHT22;3755;59.316;18.092;2022-09-25T14:01:35;16.00;99.90
7427;DHT22;3755;59.316;18.092;2022-09-25T14:04:12;16.10;99.90
7427;DHT22;3755;59.316;18.092;2022-09-25T14:06:44;16.20;99.90
7427;DHT22;3755;59.316;18.092;2022-09-25T14:09:14;16.20;99.90
7427;DHT22;3755;59.316;18.092;2022-09-25T14:11:50;16.20;99.90
7427;DHT22;3755;59.316;18.092;2022-09-25T14:14:26;16.10;99.90
7427;DHT22;3755;59.316;18.092;2022-09-25T14:16:58;16.00;99.90
7427;DHT22;3755;59.316;18.092;2022-09-25T14:19:29;16.00;99.90
7427;DHT22;3755;59.316;18.092;2022-09-25T14:22:01;16.10;99.90
7427;DHT22;3755;59.316;18.092;2022-09-25T14:24:30;16.10;99.90
7427;DHT22;3755;59.316;18.092;2022-09-25T14:26:59;16.10;99.90
7427;DHT22;3755;59.316;18.092;2022-09-25T14:29:38;16.10;99.90
7427;DHT22;3755;59.316;18.092;2022-09-25T14:32:13;16.00;99.90
7427;DHT22;3755;59.316;18.092;2022-09-25T14:35:25;15.90;99.90
7427;DHT22;3755;59.316;18.092;2022-09-25T14:38:11;15.90;99.90
7427;DHT22;3755;59.316;18.092;2022-09-25T14:40:52;15.80;99.90
7427;DHT22;3755;59.316;18.092;2022-09-25T14:43:46;15.80;99.90
7427;DHT22;3755;59.316;18.092;2022-09-25T14:46:31;15.80;99.90
7427;DHT22;3755;59.316;18.092;2022-09-25T14:49:05;15.70;99.90
7427;DHT22;3755;59.316;18.092;2022-09-25T14:51:40;15.60;99.90
7427;DHT22;3755;59.316;18.092;2022-09-25T14:54:27;15.60;99.90
7427;DHT22;3755;59.316;18.092;2022-09-25T14:56:57;15.50;99.90
7427;DHT22;3755;59.316;18.092;2022-09-25T14:59:35;15.40;99.90
7427;DHT22;3755;59.316;18.092;2022-09-25T15:02:19;15.40;99.90
7427;DHT22;3755;59.316;18.092;2022-09-25T15:04:49;15.40;99.90
7427;DHT22;3755;59.316;18.092;2022-09-25T15:07:22;15.50;99.90
7427;DHT22;3755;59.316;18.092;2022-09-25T15:09:52;15.50;99.90
7427;DHT22;3755;59.316;18.092;2022-09-25T15:12:26;15.50;99.90
7427;DHT22;3755;59.316;18.092;2022-09-25T15:15:03;15.50;99.90
7427;DHT22;3755;59.316;18.092;2022-09-25T15:17:42;15.30;99.90
7427;DHT22;3755;59.316;18.092;2022-09-25T15:20:15;15.10;99.90
7427;DHT22;3755;59.316;18.092;2022-09-25T15:22:48;15.00;99.90
7427;DHT22;3755;59.316;18.092;2022-09-25T15:25:22;14.90;99.90
7427;DHT22;3755;59.316;18.092;2022-09-25T15:27:51;14.90;99.90
7427;DHT22;3755;59.316;18.092;2022-09-25T15:30:19;14.80;99.90
7427;DHT22;3755;59.316;18.092;2022-09-25T15:32:49;14.80;99.90
7427;DHT22;3755;59.316;18.092;2022-09-25T15:35:22;14.70;99.90
7427;DHT22;3755;59.316;18.092;2022-09-25T15:37:56;14.70;99.90
7427;DHT22;3755;59.316;18.092;2022-09-25T15:40:29;14.60;99.90
7427;DHT22;3755;59.316;18.092;2022-09-25T15:42:58;14.60;99.90
7427;DHT22;3755;59.316;18.092;2022-09-25T15:45:37;14.60;99.90
7427;DHT22;3755;59.316;18.092;2022-09-25T15:48:19;14.60;99.90
7427;DHT22;3755;59.316;18.092;2022-09-25T15:50:48;14.60;99.90
7427;DHT22;3755;59.316;18.092;2022-09-25T15:53:20;14.70;99.90
7427;DHT22;3755;59.316;18.092;2022-09-25T15:55:49;14.70;99.90
7427;DHT22;3755;59.316;18.092;2022-09-25T15:58:19;14.60;99.90
7427;DHT22;3755;59.316;18.092;2022-09-25T16:00:59;14.40;99.90
7427;DHT22;3755;59.316;18.092;2022-09-25T16:03:48;14.30;99.90
7427;DHT22;3755;59.316;18.092;2022-09-25T16:06:39;14.20;99.90
7427;DHT22;3755;59.316;18.092;2022-09-25T16:09:20;14.10;99.90
7427;DHT22;3755;59.316;18.092;2022-09-25T16:11:52;14.10;99.90
7427;DHT22;3755;59.316;18.092;2022-09-25T16:14:25;14.00;99.90
7427;DHT22;3755;59.316;18.092;2022-09-25T16:16:56;13.90;99.90
7427;DHT22;3755;59.316;18.092;2022-09-25T16:19:33;13.80;99.90
7427;DHT22;3755;59.316;18.092;2022-09-25T16:22:16;13.80;99.90
7427;DHT22;3755;59.316;18.092;2022-09-25T16:24:49;13.80;99.90
7427;DHT22;3755;59.316;18.092;2022-09-25T16:27:26;13.70;99.90
7427;DHT22;3755;59.316;18.092;2022-09-25T16:29:57;13.60;99.90
7427;DHT22;3755;59.316;18.092;2022-09-25T16:32:30;13.50;99.90
7427;DHT22;3755;59.316;18.092;2022-09-25T16:35:01;13.40;99.90